Terminal Aerodrome Forecast
Issued by NWS Wilmington, OH

Current Version | Previous Version | Graphics & Text | Print | Product List | Glossary On
Versions: 1 2 3 4 5 6 7 8 9 10 11 12 13 14 15 16 17 18 19 20 21 22 23
000
FTUS41 KILN 132122 AAC
TAFILN
TAF AMD
KILN 132122Z 1321/1418 17016G24KT P6SM OVC100
     FM132300 23020G35KT P6SM VCSH OVC045
     FM140300 26016G26KT P6SM OVC025
     FM140800 31014KT P6SM OVC025
     FM141500 35007KT P6SM SCT015=

USA.gov is the U.S. government's official web portal to all federal, state and local government web resources and services.